Flight Track Log - Related Links

Times and Time Zones

All times are in EDT time to prevent confusion due to time zone crossing. See the SWA714 flight status page for this flight to view local times or setup timezone preferences in your user account.

Time Position Orientation Groundspeed Altitude Reporting Facility
EDT Latitude Longitude Course Direction KTS MPH feet Rate Location/Type
Tue 04:08:10 PM 29.5464 -98.4467 42° Northeast 159 183 1,800  Level Houston Center
Tue 04:09:17 PM 29.5981 -98.3925 42° Northeast 240 276 4,000 1,500 Climbing Houston Center
Tue 04:10:18 PM 29.6583 -98.3417 36° Northeast 313 360 5,000 1,684 Climbing Houston Center
Tue 04:11:11 PM 29.7356 -98.3564 351° North 303 349 7,200 2,661 Climbing Houston Center
Tue 04:12:13 PM 29.8203 -98.3658 354° North 307 353 10,100 2,496 Climbing Houston Center
Tue 04:13:16 PM 29.9278 -98.3756 356° North 361 415 12,400 2,352 Climbing Houston Center
Tue 04:14:18 PM 30.0336 -98.3861 355° North 380 437 15,000 2,806 Climbing Houston Center
Tue 04:15:20 PM 30.1428 -98.3878 359° North 407 468 18,200 2,565 Climbing Houston Center
Tue 04:16:22 PM 30.2572 -98.3700 North 385 443 20,300 1,887 Climbing Houston Center
Tue 04:17:24 PM 30.3703 -98.3550 North 412 474 22,100 1,306 Climbing Houston Center
Tue 04:18:26 PM 30.4914 -98.3369 North 428 493 23,000 968 Climbing Houston Center
Tue 04:19:28 PM 30.6208 -98.3186 North 451 519 24,100 484 Climbing Houston Center
Tue 04:20:30 PM 30.7578 -98.2986 North 477 549 24,000 -48 Descending Houston Center
Tue 04:21:33 PM 30.8936 -98.2781 North 484 557 24,000  Level Houston Center
Tue 04:22:35 PM 31.0442 -98.2542 North 467 537 24,000  Level Houston Center
Tue 04:23:07 PM 31.1167 -98.2456 North 471 542 24,000  Level Fort Worth Center
Tue 04:24:07 PM 31.2525 -98.2153 11° North 481 554 24,000  Level Fort Worth Center
Tue 04:25:07 PM 31.3842 -98.1653 18° North 495 570 24,000  Level Fort Worth Center
Tue 04:26:07 PM 31.5161 -98.1153 18° North 495 570 24,000  Level Fort Worth Center
Tue 04:27:07 PM 31.6353 -98.0722 17° North 500 575 24,000  Level Fort Worth Center
Tue 04:28:07 PM 31.7672 -98.0267 16° North 499 574 24,000 -450 Level Fort Worth Center
Tue 04:29:07 PM 31.8864 -97.9811 18° North 465 535 23,100 -1,050 Descending Fort Worth Center
Tue 04:30:07 PM 32.0158 -97.9719 North 421 484 21,900 -1,550 Descending Fort Worth Center
Tue 04:31:07 PM 32.1247 -97.9186 23° Northeast 409 471 20,000 -2,200 Descending Fort Worth Center
Tue 04:32:07 PM 32.2083 -97.8211 45° Northeast 409 471 17,500 -2,100 Descending Fort Worth Center
Tue 04:33:07 PM 32.2861 -97.7303 45° Northeast 395 455 15,800 -1,850 Descending Fort Worth Center
Tue 04:34:07 PM 32.3572 -97.6422 46° Northeast 376 433 13,800 -1,850 Descending Fort Worth Center
Tue 04:35:07 PM 32.4242 -97.5636 45° Northeast 352 405 12,100 -900 Descending Fort Worth Center
Tue 04:36:07 PM 32.4908 -97.4800 47° Northeast 342 394 12,000 -100 Descending Fort Worth Center
Tue 04:37:07 PM 32.5578 -97.4036 44° Northeast 336 387 11,900 -500 Descending Fort Worth Center
Tue 04:38:07 PM 32.6183 -97.3294 46° Northeast 317 365 11,000 -450 Descending Fort Worth Center
Tue 04:39:07 PM 32.6725 -97.2606 47° Northeast 294 338 11,000  Level Fort Worth Center
Tue 04:40:07 PM 32.7289 -97.1911 46° Northeast 283 326 11,000 -100 Level Fort Worth Center
Tue 04:41:07 PM 32.8019 -97.1711 13° North 263 303 10,800 -750 Descending Fort Worth Center
Tue 04:42:07 PM 32.8792 -97.1758 357° North 257 296 9,500 -1,500 Descending Fort Worth Center
Tue 04:43:07 PM 32.9122 -97.1067 60° Northeast 234 269 7,800 -1,850 Descending Fort Worth Center
Tue 04:44:07 PM 32.9392 -97.0222 69° East 229 264 5,800 -2,250 Descending Fort Worth Center
Tue 04:45:07 PM 32.9347 -96.9556 95° East 203 234 3,300 -2,050 Descending Fort Worth Center
Tue 04:46:07 PM 32.8950 -96.9136 138° Southeast 178 205 1,700 -1,150 Descending Fort Worth Center
Tue 04:47:07 PM 32.8678 -96.8842 138° Southeast 156 180 1,000 -700 Descending Fort Worth Center
Tue 04:49:00 PM 32.8471 -96.8518 109° East  Level Estimated
Tue 04:56:00 PM 32.8471 -96.8518 109° East  Level Estimated

Login

Don't have an account? Register now (free) for customized features, flight alerts, and more!